Latest Weather Observations for Strathalbyn

IDS60801

Issued at 3:21 pm CDT Saturday 10 December 2022 (issued every 10 minutes, with the page automatically refreshed every 10 minutes)

About weather observations | Map of weather stations | Latest weather observations for SA | Other Formats
Station Details ID: 024580 Name: STRATHALBYN RACECOURSE Lat: -35.28 Lon: 138.89 Height: 58.0 m
Data from the previous 72 hours. | See also: Recent months at Strathalbyn
Date/Time
CDT
Temp
°C
App
Temp
°C
Dew
Point
°C
Rel
Hum
%
Delta-T
°C
Wind Press
QNH
hPa
Press
MSL
hPa
Rain since
9am
mm
Dir  Spd
km/h
Gust
km/h
Spd
kts
Gust
kts
10/03:00pm 30.7 28.6 8.4 25 12.4 NNE 9 17 5 9 1006.6 1006.4 0.0
10/02:30pm 31.9 28.1 7.5 22 13.4 NNE 17 26 9 14 1006.8 1006.6 0.0
10/02:00pm 31.9 26.8 7.5 22 13.4 E 24 35 13 19 1007.1 1006.9 0.0
10/01:30pm 30.0 25.3 7.8 25 12.2 NE 22 30 12 16 1008.0 1007.8 0.0
10/01:00pm 28.4 23.8 6.5 25 11.6 NE 20 28 11 15 1008.6 1008.4 0.0
10/12:30pm 27.9 23.6 7.2 27 11.1 NE 19 26 10 14 1009.1 1008.9 0.0
10/12:00pm 27.5 23.4 6.3 26 11.2 NE 17 22 9 12 1009.3 1009.1 0.0
10/11:30am 26.9 22.1 5.8 26 11.0 NE 20 26 11 14 1009.7 1009.5 0.0
10/11:00am 26.6 23.0 6.6 28 10.5 NNE 15 20 8 11 1010.1 1009.9 0.0
10/10:30am 27.2 23.5 8.1 30 10.3 NNE 17 26 9 14 1010.0 1009.8 0.0
10/10:00am 24.2 19.7 6.9 33 9.0 NNE 20 28 11 15 1010.2 1010.0 0.0
10/09:30am 23.8 19.2 6.6 33 8.9 NNE 20 26 11 14 1010.7 1010.5 0.0
10/09:00am 21.9 17.6 7.0 38 7.7 NNE 19 28 10 15 1011.1 1010.9 0.0
10/08:30am 21.1 16.6 5.9 37 7.6 NNE 19 26 10 14 1011.1 1010.9 0.0
10/08:00am 20.1 16.1 6.5 41 6.9 NNE 17 22 9 12 1011.3 1011.1 0.0
10/07:30am 19.3 15.2 6.1 42 6.6 NNE 17 26 9 14 1011.1 1010.9 0.0
10/07:00am 15.4 13.5 9.1 66 3.2 NE 9 13 5 7 1011.0 1010.8 0.0
10/06:30am 12.1 9.7 7.2 72 2.4 ENE 9 9 5 5 1011.2 1011.0 0.0
10/06:00am 10.9 8.8 6.8 76 1.9 ENE 7 7 4 4 1011.2 1011.0 0.0
10/05:30am 10.0 7.8 6.2 77 1.8 NE 7 9 4 5 1011.3 1011.1 0.0
10/05:00am 10.0 7.4 6.2 77 1.8 NNE 9 11 5 6 1011.3 1011.1 0.0
10/04:30am 10.2 8.1 6.0 75 1.9 NNE 6 7 3 4 1011.3 1011.1 0.0
10/04:00am 10.7 8.6 6.5 75 2.0 NE 7 9 4 5 1011.2 1011.0 0.0
10/03:30am 11.0 8.8 6.4 73 2.2 NE 7 9 4 5 1011.4 1011.2 0.0
10/03:00am 11.2 9.3 6.9 75 2.1 NNE 6 7 3 4 1011.7 1011.5 0.0
10/02:30am 11.5 9.1 7.2 75 2.1 N 9 11 5 6 1012.0 1011.8 0.0
10/02:00am 12.1 9.1 7.6 74 2.2 N 13 15 7 8 1012.2 1012.0 0.0
10/01:30am 12.2 9.6 7.9 75 2.1 N 11 15 6 8 1012.4 1012.2 0.0
10/01:00am 12.0 10.3 8.3 78 1.8 N 7 13 4 7 1012.7 1012.6 0.0
10/12:30am 11.8 9.6 7.7 76 2.0 NNW 9 11 5 6 1013.1 1013.0 0.0
10/12:00am 12.6 9.7 8.3 75 2.1 NNW 13 15 7 8 1013.3 1013.2 0.0
 
Date/Time
CDT
Temp
°C
App
Temp
°C
Dew
Point
°C
Rel
Hum
%
Delta-T
°C
Wind Press
QNH
hPa
Press
MSL
hPa
Rain since
9am
mm
Dir  Spd
km/h
Gust
km/h
Spd
kts
Gust
kts
09/11:30pm 12.7 9.8 8.2 74 2.2 NNW 13 15 7 8 1013.6 1013.5 0.0
09/11:00pm 12.6 10.8 7.3 70 2.6 NNW 6 9 3 5 1013.8 1013.7 0.0
09/10:30pm 14.7 12.9 8.0 64 3.4 WSW 7 9 4 5 1013.9 1013.8 0.0
09/10:00pm 15.2 13.3 7.7 61 3.7 WSW 7 9 4 5 1013.8 1013.7 0.0
09/09:30pm 16.4 14.7 8.4 59 4.1 SSW 7 7 4 4 1013.6 1013.5 0.0
09/09:00pm 17.1 14.7 8.5 57 4.4 SSW 11 15 6 8 1013.6 1013.5 0.0
09/08:30pm 18.2 15.9 7.6 50 5.4 SSW 9 13 5 7 1013.5 1013.4 0.0
09/08:00pm 19.9 16.7 7.0 43 6.6 SE 13 19 7 10 1013.1 1013.0 0.0
09/07:30pm 21.4 17.2 5.7 36 7.9 SE 17 24 9 13 1012.8 1012.7 0.0
09/07:00pm 22.3 17.7 5.7 34 8.4 SE 19 28 10 15 1012.6 1012.4 0.0
09/06:30pm 23.2 18.0 3.7 28 9.5 ESE 20 26 11 14 1012.4 1012.2 0.0
09/06:00pm 23.4 18.4 3.4 27 9.7 ESE 19 28 10 15 1012.3 1012.1 0.0
09/05:30pm 24.0 19.2 4.9 29 9.6 SE 19 26 10 14 1012.5 1012.3 0.0
09/05:00pm 24.1 19.3 4.5 28 9.8 ESE 19 26 10 14 1012.7 1012.6 0.0
09/04:30pm 24.2 20.6 2.9 25 10.3 ENE 11 22 6 12 1013.0 1012.9 0.0
09/04:00pm 24.1 21.3 3.4 26 10.1 NNE 7 13 4 7 1013.5 1013.4 0.0
09/03:30pm 23.2 20.5 3.7 28 9.5 NNE 7 13 4 7 1013.8 1013.7 0.0
09/03:00pm 22.7 18.5 3.8 29 9.2 N 15 22 8 12 1014.2 1014.1 0.0
09/02:30pm 22.2 18.2 4.7 32 8.6 NNE 15 26 8 14 1014.4 1014.3 0.0
09/02:00pm 21.7 17.4 3.4 30 8.8 NE 15 30 8 16 1014.9 1014.8 0.0
09/01:30pm 21.6 17.2 4.7 33 8.3 NNE 17 26 9 14 1015.3 1015.2 0.0
09/01:00pm 20.6 16.4 3.8 33 8.1 NNE 15 26 8 14 1015.7 1015.6 0.0
09/12:30pm 19.6 15.4 3.7 35 7.5 NNE 15 26 8 14 1016.2 1016.1 0.0
09/12:00pm 18.8 14.2 3.8 37 7.1 NE 17 28 9 15 1016.6 1016.5 0.0
09/11:30am 17.7 11.8 3.9 40 6.5 NE 24 35 13 19 1016.7 1016.6 0.0
09/11:00am 16.8 11.0 4.2 43 5.9 NNE 24 33 13 18 1017.0 1016.9 0.0
09/10:30am 17.3 11.9 6.2 48 5.4 NE 24 33 13 18 1017.3 1017.2 0.0
09/10:00am 15.2 9.9 4.9 50 4.8 NE 22 32 12 17 1017.6 1017.5 0.0
09/09:30am 13.7 8.9 4.8 55 4.1 NE 19 26 10 14 1018.5 1018.4 0.0
09/09:00am 12.4 7.9 4.4 58 3.6 NNE 17 20 9 11 1018.8 1018.7 0.0
09/08:30am 11.7 7.6 4.4 61 3.3 NE 15 26 8 14 1018.9 1018.8 0.0
09/08:00am 10.9 7.6 4.6 65 2.8 NE 11 13 6 7 1018.5 1018.4 0.0
09/07:30am 10.3 7.4 4.5 67 2.6 E 9 13 5 7 1018.6 1018.5 0.0
09/07:00am 10.1 7.6 4.5 68 2.5 ENE 7 9 4 5 1018.5 1018.4 0.0
09/06:30am 9.9 6.9 4.3 68 2.5 NE 9 9 5 5 1017.5 1017.4 0.0
09/06:00am 10.0 7.6 4.4 68 2.5 N 6 7 3 4 1018.0 1017.9 0.0
09/05:30am 10.1 7.7 4.5 68 2.5 NE 6 9 3 5 1017.5 1017.4 0.0
09/05:00am 10.1 7.2 4.5 68 2.5 NNE 9 13 5 7 1016.8 1016.7 0.0
09/04:30am 10.1 7.7 5.1 71 2.3 NE 7 9 4 5 1016.3 1016.2 0.0
09/04:00am 10.4 7.4 6.0 74 2.0 NE 11 15 6 8 1016.4 1016.3 0.0
09/03:30am 10.0 7.4 6.2 77 1.8 N 9 11 5 6 1016.5 1016.4 0.0
09/03:00am 10.1 8.1 6.4 78 1.7 NNE 6 7 3 4 1016.6 1016.5 0.0
09/02:30am 9.6 7.4 6.3 80 1.5 NNE 7 9 4 5 1016.7 1016.6 0.0
09/02:00am 9.2 6.9 5.9 80 1.5 N 7 7 4 4 1017.3 1017.2 0.0
09/01:30am 9.3 7.1 6.0 80 1.5 NW 7 11 4 6 1017.6 1017.5 0.0
09/01:00am 8.6 6.4 5.2 79 1.5 NNW 6 7 3 4 1018.1 1018.0 0.0
09/12:30am 8.4 5.5 4.8 78 1.6 NNW 9 11 5 6 1018.4 1018.3 0.0
09/12:00am 9.0 7.8 4.8 75 1.9 CALM 0 0 0 0 1018.5 1018.4 0.0
 
Date/Time
CDT
Temp
°C
App
Temp
°C
Dew
Point
°C
Rel
Hum
%
Delta-T
°C
Wind Press
QNH
hPa
Press
MSL
hPa
Rain since
9am
mm
Dir  Spd
km/h
Gust
km/h
Spd
kts
Gust
kts
08/11:30pm 9.5 8.3 4.7 72 2.1 CALM 0 0 0 0 1018.9 1018.8 0.0
08/11:00pm 10.2 9.0 4.8 69 2.4 CALM 0 0 0 0 1019.4 1019.3 0.0
08/10:30pm 10.6 8.3 4.9 68 2.6 SW 6 7 3 4 1019.6 1019.5 0.0
08/10:00pm 10.8 9.7 4.9 67 2.7 CALM 0 0 0 0 1019.4 1019.3 0.0
08/09:30pm 11.2 8.8 5.3 67 2.7 SW 7 9 4 5 1019.1 1019.0 0.0
08/09:00pm 11.9 8.8 5.5 65 3.0 SW 11 13 6 7 1018.9 1018.8 0.0
08/08:30pm 12.4 9.2 5.1 61 3.4 S 11 13 6 7 1018.6 1018.5 0.0
08/08:00pm 13.5 9.5 4.9 56 4.0 SSE 15 19 8 10 1018.1 1018.0 0.0
08/07:30pm 14.1 9.7 4.9 54 4.3 SSE 17 22 9 12 1017.8 1017.7 0.0
08/07:00pm 14.6 9.6 4.6 51 4.7 SSE 20 32 11 17 1017.4 1017.3 0.0
08/06:30pm 15.0 9.3 5.0 51 4.7 SSE 24 33 13 18 1017.1 1017.0 0.0
08/06:00pm 15.1 9.4 5.0 51 4.8 SSE 24 32 13 17 1017.1 1017.0 0.0
08/05:30pm 16.6 10.5 4.9 46 5.6 S 26 35 14 19 1017.2 1017.1 0.0
08/05:00pm 16.9 11.3 5.2 46 5.6 S 24 39 13 21 1017.5 1017.4 0.0
08/04:30pm 17.4 12.0 6.3 48 5.5 SSW 24 33 13 18 1017.8 1017.7 0.0
08/04:00pm 17.0 12.2 5.6 47 5.5 SSW 20 28 11 15 1018.2 1018.1 0.0
08/03:30pm 16.3 11.4 5.3 48 5.3 SSW 20 32 11 17 1018.5 1018.4 0.0
08/03:00pm 16.3 10.8 5.9 50 5.0 S 24 35 13 19 1018.6 1018.5 0.0
08/02:30pm 16.5 10.2 5.8 49 5.2 S 28 37 15 20 1018.5 1018.4 0.0
08/02:00pm 17.4 11.9 4.0 41 6.3 S 22 32 12 17 1018.5 1018.4 0.0
08/01:30pm 16.8 11.8 4.5 44 5.8 S 20 30 11 16 1018.7 1018.6 0.0
08/01:00pm 17.0 11.3 5.0 45 5.7 S 24 35 13 19 1018.7 1018.6 0.0
08/12:30pm 16.5 10.6 3.9 43 5.9 S 24 37 13 20 1019.1 1019.0 0.0
08/12:00pm 15.7 10.7 4.7 48 5.2 SSW 20 32 11 17 1019.2 1019.1 0.0
08/11:30am 15.4 9.9 5.9 53 4.6 SSW 24 30 13 16 1019.3 1019.2 0.0
08/11:00am 15.6 9.4 4.3 47 5.3 SSW 26 37 14 20 1019.3 1019.2 0.0
08/10:30am 16.4 10.7 3.1 41 6.1 SSW 22 33 12 18 1019.2 1019.1 0.0
08/10:00am 15.7 9.2 2.8 42 5.8 S 26 35 14 19 1019.3 1019.2 0.0
08/09:30am 15.0 9.3 4.7 50 4.8 S 24 32 13 17 1019.3 1019.2 0.0
08/09:00am 14.1 9.1 4.7 53 4.4 SSW 20 28 11 15 1019.3 1019.2 0.0
08/08:30am 14.0 8.8 3.8 50 4.6 S 20 26 11 14 1018.9 1018.8 0.0
08/08:00am 14.4 9.5 4.1 50 4.7 S 19 28 10 15 1018.7 1018.6 0.0
08/07:30am 13.4 10.0 4.0 53 4.3 SW 11 17 6 9 1018.5 1018.4 0.0
08/07:00am 12.1 8.8 4.8 61 3.3 WSW 11 13 6 7 1018.2 1018.1 0.0
08/06:30am 10.8 7.5 4.3 64 2.9 W 11 13 6 7 1017.9 1017.8 0.0
08/06:00am 10.5 7.2 4.6 67 2.6 W 11 13 6 7 1017.6 1017.5 0.0
08/05:30am 10.8 8.1 3.8 62 3.1 W 7 9 4 5 1017.1 1017.0 0.0
08/05:00am 11.2 7.8 4.0 61 3.2 WSW 11 13 6 7 1016.8 1016.7 0.0
08/04:30am 10.8 7.4 4.0 63 3.0 WSW 11 13 6 7 1016.7 1016.6 0.0
08/04:00am 9.5 6.3 2.8 63 2.9 WSW 9 11 5 6 1016.7 1016.6 0.0
08/03:30am 11.0 7.8 3.3 59 3.4 WSW 9 11 5 6 1016.7 1016.6 0.0
08/03:00am 10.8 7.7 3.6 61 3.2 WSW 9 11 5 6 1016.7 1016.6 0.0
08/02:30am 9.9 7.2 3.9 66 2.6 SW 7 9 4 5 1016.9 1016.8 0.0
08/02:00am 10.9 7.5 4.1 63 3.0 SW 11 15 6 8 1016.9 1016.8 0.0
08/01:30am 11.0 7.9 3.8 61 3.2 WSW 9 13 5 7 1017.0 1016.9 0.0
08/01:00am 10.0 7.1 2.8 61 3.1 SW 7 11 4 6 1017.0 1016.9 0.0
08/12:30am 11.3 6.9 2.6 55 3.8 SSW 15 20 8 11 1017.4 1017.3 0.0
08/12:00am 11.9 8.2 4.6 61 3.3 SW 13 19 7 10 1017.3 1017.2 0.0
 
Date/Time
CDT
Temp
°C
App
Temp
°C
Dew
Point
°C
Rel
Hum
%
Delta-T
°C
Wind Press
QNH
hPa
Press
MSL
hPa
Rain since
9am
mm
Dir  Spd
km/h
Gust
km/h
Spd
kts
Gust
kts
07/11:30pm 10.6 7.1 3.4 61 3.2 SW 11 15 6 8 1017.2 1017.1 0.0
07/11:00pm 11.3 6.9 2.9 56 3.7 SSW 15 19 8 10 1017.1 1017.0 0.0
07/10:30pm 11.9 6.7 2.4 52 4.1 SSW 19 26 10 14 1017.1 1017.0 0.0
07/10:00pm 11.3 6.4 2.1 53 3.9 SSW 17 22 9 12 1016.9 1016.8 0.0
07/09:30pm 12.2 6.8 2.4 51 4.3 SSW 20 30 11 16 1016.5 1016.4 0.0
07/09:00pm 13.1 7.2 4.0 54 4.1 SSW 24 33 13 18 1016.0 1015.9 0.0
07/08:30pm 12.9 8.2 3.3 52 4.3 SSW 17 22 9 12 1015.7 1015.6 0.0
07/08:00pm 13.5 7.1 3.0 49 4.7 SSW 26 41 14 22 1015.5 1015.4 0.0
07/07:30pm 14.2 7.7 4.5 52 4.5 SSW 28 41 15 22 1015.0 1014.9 0.0
07/07:12pm 14.6 7.4 4.9 52 4.5 SSW 32 50 17 27 1014.9 1014.8 0.0
07/07:00pm 14.8 7.0 4.8 51 4.7 SSW 35 46 19 25 1014.6 1014.5 0.0
07/06:30pm 14.9 8.5 8.4 65 3.3 SSW 32 48 17 26 1014.1 1014.0 0.0
07/06:00pm 15.3 8.7 7.8 61 3.8 SSW 32 48 17 26 1013.4 1013.3 0.0
07/05:30pm 15.3 9.0 9.0 66 3.2 SSW 32 48 17 26 1013.0 1012.9 0.0
07/05:14pm 15.0 8.2 9.1 68 3.0 SSW 35 54 19 29 1013.1 1013.0 0.0
07/05:00pm 17.0 8.9 7.1 52 4.9 SSW 39 56 21 30 1012.8 1012.7 0.0
07/04:44pm 16.9 9.5 8.3 57 4.4 SSW 37 56 20 30 1012.7 1012.6 0.0
07/04:30pm 16.3 8.8 7.8 57 4.3 SSW 37 54 20 29 1012.5 1012.3 0.0
07/04:07pm 16.9 10.3 8.6 58 4.3 SW 33 52 18 28 1012.4 1012.2 0.0
07/04:00pm 16.9 9.6 8.8 59 4.2 SW 37 52 20 28 1012.4 1012.2 0.0
07/03:30pm 17.2 9.3 7.8 54 4.8 SSW 39 56 21 30 1012.1 1011.9 0.0

Other formats

Comma delimited format used in spreadsheet applications
http://www.bom.gov.au/fwo/IDS60801/IDS60801.94814.axf

JavaScript Object Notation format (JSON) in row-major order
http://www.bom.gov.au/fwo/IDS60801/IDS60801.94814.json

Data quality

Most of these data are generated automatically and are frequently updated. Quality checks on data are not normally performed. It is possible for incorrect values to appear. Refer to information at About Latest Weather Observations and please check the disclaimer before using these data.